sensor_id;sensor_type;location;lat;lon;timestamp;P1;durP1;ratioP1;P2;durP2;ratioP2
44822;SDS011;51097;51.984;5.650;2023-06-19T00:01:09;11.07;;;9.63;;
44822;SDS011;51097;51.984;5.650;2023-06-19T00:03:35;10.10;;;8.75;;
44822;SDS011;51097;51.984;5.650;2023-06-19T00:06:00;11.07;;;10.07;;
44822;SDS011;51097;51.984;5.650;2023-06-19T00:08:26;11.15;;;10.15;;
44822;SDS011;51097;51.984;5.650;2023-06-19T00:10:51;10.02;;;9.15;;
44822;SDS011;51097;51.984;5.650;2023-06-19T00:13:17;9.88;;;8.98;;
44822;SDS011;51097;51.984;5.650;2023-06-19T00:15:43;9.45;;;8.52;;
44822;SDS011;51097;51.984;5.650;2023-06-19T00:18:09;11.90;;;8.93;;
44822;SDS011;51097;51.984;5.650;2023-06-19T00:20:35;10.43;;;9.40;;
44822;SDS011;51097;51.984;5.650;2023-06-19T00:23:01;9.32;;;8.52;;
44822;SDS011;51097;51.984;5.650;2023-06-19T00:25:27;9.90;;;9.00;;
44822;SDS011;51097;51.984;5.650;2023-06-19T00:27:52;11.02;;;9.98;;
44822;SDS011;51097;51.984;5.650;2023-06-19T00:30:18;10.57;;;9.07;;
44822;SDS011;51097;51.984;5.650;2023-06-19T00:32:43;12.05;;;9.68;;
44822;SDS011;51097;51.984;5.650;2023-06-19T00:35:15;9.95;;;8.95;;
44822;SDS011;51097;51.984;5.650;2023-06-19T00:37:43;10.70;;;9.65;;
44822;SDS011;51097;51.984;5.650;2023-06-19T00:40:12;10.93;;;9.23;;
44822;SDS011;51097;51.984;5.650;2023-06-19T00:42:57;9.02;;;8.20;;
44822;SDS011;51097;51.984;5.650;2023-06-19T00:45:23;10.55;;;8.45;;
44822;SDS011;51097;51.984;5.650;2023-06-19T00:47:50;10.57;;;8.20;;
44822;SDS011;51097;51.984;5.650;2023-06-19T00:50:21;9.65;;;8.73;;
44822;SDS011;51097;51.984;5.650;2023-06-19T00:52:47;10.38;;;7.90;;
44822;SDS011;51097;51.984;5.650;2023-06-19T00:55:12;8.63;;;7.50;;
44822;SDS011;51097;51.984;5.650;2023-06-19T00:57:39;8.65;;;7.35;;
44822;SDS011;51097;51.984;5.650;2023-06-19T01:00:05;10.48;;;8.13;;
44822;SDS011;51097;51.984;5.650;2023-06-19T01:02:33;8.90;;;8.10;;
44822;SDS011;51097;51.984;5.650;2023-06-19T01:04:59;8.93;;;7.65;;
44822;SDS011;51097;51.984;5.650;2023-06-19T01:10:18;9.95;;;7.82;;
44822;SDS011;51097;51.984;5.650;2023-06-19T01:12:52;9.32;;;7.93;;
44822;SDS011;51097;51.984;5.650;2023-06-19T01:15:21;9.10;;;6.75;;
44822;SDS011;51097;51.984;5.650;2023-06-19T01:17:47;7.35;;;6.65;;
44822;SDS011;51097;51.984;5.650;2023-06-19T01:20:14;6.75;;;5.95;;
44822;SDS011;51097;51.984;5.650;2023-06-19T01:22:40;8.30;;;5.38;;
44822;SDS011;51097;51.984;5.650;2023-06-19T01:25:09;9.20;;;5.13;;
44822;SDS011;51097;51.984;5.650;2023-06-19T01:27:36;6.97;;;5.28;;
44822;SDS011;51097;51.984;5.650;2023-06-19T01:30:02;6.13;;;4.20;;
44822;SDS011;51097;51.984;5.650;2023-06-19T01:35:31;6.80;;;3.88;;
44822;SDS011;51097;51.984;5.650;2023-06-19T01:37:59;5.40;;;3.90;;
44822;SDS011;51097;51.984;5.650;2023-06-19T01:40:26;5.22;;;3.70;;
44822;SDS011;51097;51.984;5.650;2023-06-19T01:45:24;4.20;;;3.63;;
44822;SDS011;51097;51.984;5.650;2023-06-19T01:47:50;6.20;;;4.00;;
44822;SDS011;51097;51.984;5.650;2023-06-19T01:50:16;4.72;;;3.30;;
44822;SDS011;51097;51.984;5.650;2023-06-19T01:52:41;4.15;;;3.53;;
44822;SDS011;51097;51.984;5.650;2023-06-19T01:55:07;5.00;;;4.28;;
44822;SDS011;51097;51.984;5.650;2023-06-19T01:57:34;6.13;;;3.55;;
44822;SDS011;51097;51.984;5.650;2023-06-19T02:00:01;5.13;;;3.80;;
44822;SDS011;51097;51.984;5.650;2023-06-19T02:02:27;6.45;;;4.20;;
44822;SDS011;51097;51.984;5.650;2023-06-19T02:04:53;7.28;;;4.40;;
44822;SDS011;51097;51.984;5.650;2023-06-19T02:07:18;6.15;;;4.45;;
44822;SDS011;51097;51.984;5.650;2023-06-19T02:09:44;5.80;;;3.72;;
44822;SDS011;51097;51.984;5.650;2023-06-19T02:12:09;5.28;;;3.72;;
44822;SDS011;51097;51.984;5.650;2023-06-19T02:14:35;5.88;;;3.72;;
44822;SDS011;51097;51.984;5.650;2023-06-19T02:17:00;3.88;;;3.22;;
44822;SDS011;51097;51.984;5.650;2023-06-19T02:19:26;4.75;;;3.42;;
44822;SDS011;51097;51.984;5.650;2023-06-19T02:21:51;3.30;;;2.88;;
44822;SDS011;51097;51.984;5.650;2023-06-19T02:24:17;6.20;;;3.40;;
44822;SDS011;51097;51.984;5.650;2023-06-19T02:26:43;4.28;;;3.00;;
44822;SDS011;51097;51.984;5.650;2023-06-19T02:29:09;4.43;;;2.92;;
44822;SDS011;51097;51.984;5.650;2023-06-19T02:31:34;3.20;;;2.90;;
44822;SDS011;51097;51.984;5.650;2023-06-19T02:34:00;4.32;;;3.33;;
44822;SDS011;51097;51.984;5.650;2023-06-19T02:36:26;6.32;;;3.72;;
44822;SDS011;51097;51.984;5.650;2023-06-19T02:38:51;3.13;;;2.83;;
44822;SDS011;51097;51.984;5.650;2023-06-19T02:41:17;3.88;;;2.90;;
44822;SDS011;51097;51.984;5.650;2023-06-19T02:43:44;3.67;;;3.33;;
44822;SDS011;51097;51.984;5.650;2023-06-19T02:46:11;4.75;;;3.53;;
44822;SDS011;51097;51.984;5.650;2023-06-19T02:48:36;3.75;;;3.35;;
44822;SDS011;51097;51.984;5.650;2023-06-19T02:51:02;3.78;;;3.40;;
44822;SDS011;51097;51.984;5.650;2023-06-19T02:53:28;6.13;;;3.47;;
44822;SDS011;51097;51.984;5.650;2023-06-19T02:55:53;4.35;;;3.38;;
44822;SDS011;51097;51.984;5.650;2023-06-19T02:58:19;3.40;;;3.03;;
44822;SDS011;51097;51.984;5.650;2023-06-19T03:00:45;3.25;;;2.90;;
44822;SDS011;51097;51.984;5.650;2023-06-19T03:03:11;5.00;;;3.50;;
44822;SDS011;51097;51.984;5.650;2023-06-19T03:05:37;5.85;;;3.25;;
44822;SDS011;51097;51.984;5.650;2023-06-19T03:08:03;4.30;;;2.70;;
44822;SDS011;51097;51.984;5.650;2023-06-19T03:10:28;4.25;;;3.60;;
44822;SDS011;51097;51.984;5.650;2023-06-19T03:12:54;5.22;;;3.42;;
44822;SDS011;51097;51.984;5.650;2023-06-19T03:15:19;3.95;;;3.08;;
44822;SDS011;51097;51.984;5.650;2023-06-19T03:17:45;4.90;;;3.30;;
44822;SDS011;51097;51.984;5.650;2023-06-19T03:20:10;5.82;;;3.55;;
44822;SDS011;51097;51.984;5.650;2023-06-19T03:22:38;3.70;;;3.17;;
44822;SDS011;51097;51.984;5.650;2023-06-19T03:25:05;4.32;;;3.20;;
44822;SDS011;51097;51.984;5.650;2023-06-19T03:27:31;4.15;;;3.55;;
44822;SDS011;51097;51.984;5.650;2023-06-19T03:29:56;4.38;;;3.97;;
44822;SDS011;51097;51.984;5.650;2023-06-19T03:32:22;4.70;;;2.53;;
44822;SDS011;51097;51.984;5.650;2023-06-19T03:34:48;3.65;;;3.22;;
44822;SDS011;51097;51.984;5.650;2023-06-19T03:37:13;3.22;;;2.92;;
44822;SDS011;51097;51.984;5.650;2023-06-19T03:39:39;4.55;;;2.95;;
44822;SDS011;51097;51.984;5.650;2023-06-19T03:42:04;3.42;;;3.00;;
44822;SDS011;51097;51.984;5.650;2023-06-19T03:44:30;4.00;;;3.63;;
44822;SDS011;51097;51.984;5.650;2023-06-19T03:46:56;5.18;;;3.80;;
44822;SDS011;51097;51.984;5.650;2023-06-19T03:49:21;4.95;;;3.28;;
44822;SDS011;51097;51.984;5.650;2023-06-19T03:51:47;5.35;;;3.65;;
44822;SDS011;51097;51.984;5.650;2023-06-19T03:54:12;4.55;;;3.33;;
44822;SDS011;51097;51.984;5.650;2023-06-19T03:56:38;3.63;;;3.13;;
44822;SDS011;51097;51.984;5.650;2023-06-19T03:59:04;5.38;;;3.40;;
44822;SDS011;51097;51.984;5.650;2023-06-19T04:01:29;4.50;;;3.28;;
44822;SDS011;51097;51.984;5.650;2023-06-19T04:03:55;3.65;;;3.15;;
44822;SDS011;51097;51.984;5.650;2023-06-19T04:06:20;3.35;;;2.97;;
44822;SDS011;51097;51.984;5.650;2023-06-19T04:08:46;5.68;;;4.00;;
44822;SDS011;51097;51.984;5.650;2023-06-19T04:11:11;4.53;;;4.10;;
44822;SDS011;51097;51.984;5.650;2023-06-19T04:13:37;5.15;;;3.72;;
44822;SDS011;51097;51.984;5.650;2023-06-19T04:16:02;7.65;;;4.32;;
44822;SDS011;51097;51.984;5.650;2023-06-19T04:18:28;5.45;;;3.25;;
44822;SDS011;51097;51.984;5.650;2023-06-19T04:20:54;5.30;;;4.07;;
44822;SDS011;51097;51.984;5.650;2023-06-19T04:23:19;4.07;;;3.67;;
44822;SDS011;51097;51.984;5.650;2023-06-19T04:25:45;5.72;;;3.58;;
44822;SDS011;51097;51.984;5.650;2023-06-19T04:28:10;4.13;;;3.72;;
44822;SDS011;51097;51.984;5.650;2023-06-19T04:30:36;5.28;;;4.07;;
44822;SDS011;51097;51.984;5.650;2023-06-19T04:33:04;5.75;;;3.58;;
44822;SDS011;51097;51.984;5.650;2023-06-19T04:35:31;6.65;;;4.32;;
44822;SDS011;51097;51.984;5.650;2023-06-19T04:37:56;4.95;;;4.40;;
44822;SDS011;51097;51.984;5.650;2023-06-19T04:40:26;5.38;;;4.88;;
44822;SDS011;51097;51.984;5.650;2023-06-19T04:42:51;6.85;;;5.55;;
44822;SDS011;51097;51.984;5.650;2023-06-19T04:45:18;5.88;;;5.05;;
44822;SDS011;51097;51.984;5.650;2023-06-19T04:47:44;7.47;;;5.22;;
44822;SDS011;51097;51.984;5.650;2023-06-19T04:50:10;7.35;;;5.88;;
44822;SDS011;51097;51.984;5.650;2023-06-19T04:52:36;8.70;;;7.30;;
44822;SDS011;51097;51.984;5.650;2023-06-19T04:55:02;8.57;;;7.38;;
44822;SDS011;51097;51.984;5.650;2023-06-19T04:57:34;8.07;;;7.38;;
44822;SDS011;51097;51.984;5.650;2023-06-19T05:00:06;9.57;;;7.90;;
44822;SDS011;51097;51.984;5.650;2023-06-19T05:02:32;9.23;;;8.32;;
44822;SDS011;51097;51.984;5.650;2023-06-19T05:04:59;9.20;;;8.10;;
44822;SDS011;51097;51.984;5.650;2023-06-19T05:07:27;12.52;;;8.25;;
44822;SDS011;51097;51.984;5.650;2023-06-19T05:09:54;8.13;;;7.25;;
44822;SDS011;51097;51.984;5.650;2023-06-19T05:12:20;9.57;;;7.72;;
44822;SDS011;51097;51.984;5.650;2023-06-19T05:14:45;9.27;;;8.32;;
44822;SDS011;51097;51.984;5.650;2023-06-19T05:17:11;8.90;;;8.00;;
44822;SDS011;51097;51.984;5.650;2023-06-19T05:19:36;8.88;;;8.05;;
44822;SDS011;51097;51.984;5.650;2023-06-19T05:22:02;8.52;;;7.70;;
44822;SDS011;51097;51.984;5.650;2023-06-19T05:24:27;9.82;;;8.10;;
44822;SDS011;51097;51.984;5.650;2023-06-19T05:26:53;10.73;;;8.80;;
44822;SDS011;51097;51.984;5.650;2023-06-19T05:29:18;10.93;;;9.77;;
44822;SDS011;51097;51.984;5.650;2023-06-19T05:31:44;17.80;;;8.65;;
44822;SDS011;51097;51.984;5.650;2023-06-19T05:34:09;10.88;;;9.10;;
44822;SDS011;51097;51.984;5.650;2023-06-19T05:36:35;8.95;;;8.05;;
44822;SDS011;51097;51.984;5.650;2023-06-19T05:39:01;12.43;;;10.10;;
44822;SDS011;51097;51.984;5.650;2023-06-19T05:41:26;9.40;;;8.40;;
44822;SDS011;51097;51.984;5.650;2023-06-19T05:43:52;10.50;;;8.80;;
44822;SDS011;51097;51.984;5.650;2023-06-19T05:46:17;9.15;;;8.18;;
44822;SDS011;51097;51.984;5.650;2023-06-19T05:48:43;10.57;;;8.82;;
44822;SDS011;51097;51.984;5.650;2023-06-19T05:51:08;9.68;;;8.48;;
44822;SDS011;51097;51.984;5.650;2023-06-19T05:53:34;11.40;;;9.18;;
44822;SDS011;51097;51.984;5.650;2023-06-19T05:55:59;10.65;;;8.63;;
44822;SDS011;51097;51.984;5.650;2023-06-19T05:58:25;11.95;;;10.32;;
44822;SDS011;51097;51.984;5.650;2023-06-19T06:00:51;11.57;;;9.88;;
44822;SDS011;51097;51.984;5.650;2023-06-19T06:03:22;9.80;;;8.68;;
44822;SDS011;51097;51.984;5.650;2023-06-19T06:05:49;10.95;;;9.63;;
44822;SDS011;51097;51.984;5.650;2023-06-19T06:08:14;10.93;;;8.70;;
44822;SDS011;51097;51.984;5.650;2023-06-19T06:10:40;9.70;;;8.38;;
44822;SDS011;51097;51.984;5.650;2023-06-19T06:13:05;13.70;;;10.55;;
44822;SDS011;51097;51.984;5.650;2023-06-19T06:15:31;12.18;;;10.70;;
44822;SDS011;51097;51.984;5.650;2023-06-19T06:17:56;9.57;;;8.18;;
44822;SDS011;51097;51.984;5.650;2023-06-19T06:20:22;10.32;;;9.32;;
44822;SDS011;51097;51.984;5.650;2023-06-19T06:22:48;10.98;;;8.38;;
44822;SDS011;51097;51.984;5.650;2023-06-19T06:25:13;9.93;;;7.68;;
44822;SDS011;51097;51.984;5.650;2023-06-19T06:27:39;9.05;;;8.05;;
44822;SDS011;51097;51.984;5.650;2023-06-19T06:30:05;9.05;;;7.72;;
44822;SDS011;51097;51.984;5.650;2023-06-19T06:32:31;9.95;;;7.40;;
44822;SDS011;51097;51.984;5.650;2023-06-19T06:34:57;8.15;;;6.32;;
44822;SDS011;51097;51.984;5.650;2023-06-19T06:37:23;7.57;;;6.25;;
44822;SDS011;51097;51.984;5.650;2023-06-19T06:39:49;5.80;;;4.90;;
44822;SDS011;51097;51.984;5.650;2023-06-19T06:42:15;6.95;;;6.25;;
44822;SDS011;51097;51.984;5.650;2023-06-19T06:44:41;7.90;;;6.03;;
44822;SDS011;51097;51.984;5.650;2023-06-19T06:47:07;7.13;;;6.43;;
44822;SDS011;51097;51.984;5.650;2023-06-19T06:49:32;7.38;;;6.60;;
44822;SDS011;51097;51.984;5.650;2023-06-19T06:51:58;6.53;;;5.70;;
44822;SDS011;51097;51.984;5.650;2023-06-19T06:54:24;6.18;;;5.60;;
44822;SDS011;51097;51.984;5.650;2023-06-19T06:56:49;6.22;;;5.63;;
44822;SDS011;51097;51.984;5.650;2023-06-19T06:59:17;6.72;;;5.95;;
44822;SDS011;51097;51.984;5.650;2023-06-19T07:01:43;7.22;;;5.15;;
44822;SDS011;51097;51.984;5.650;2023-06-19T07:04:08;8.18;;;6.60;;
44822;SDS011;51097;51.984;5.650;2023-06-19T07:06:34;7.88;;;5.25;;
44822;SDS011;51097;51.984;5.650;2023-06-19T07:08:59;9.00;;;6.45;;
44822;SDS011;51097;51.984;5.650;2023-06-19T07:11:25;11.80;;;6.90;;
44822;SDS011;51097;51.984;5.650;2023-06-19T07:13:50;9.73;;;7.50;;
44822;SDS011;51097;51.984;5.650;2023-06-19T07:16:16;8.77;;;7.65;;
44822;SDS011;51097;51.984;5.650;2023-06-19T07:18:41;8.80;;;7.25;;
44822;SDS011;51097;51.984;5.650;2023-06-19T07:21:13;10.10;;;9.15;;
44822;SDS011;51097;51.984;5.650;2023-06-19T07:23:39;12.85;;;11.55;;
44822;SDS011;51097;51.984;5.650;2023-06-19T07:26:06;13.00;;;11.80;;
44822;SDS011;51097;51.984;5.650;2023-06-19T07:28:32;13.23;;;11.82;;
44822;SDS011;51097;51.984;5.650;2023-06-19T07:30:57;15.75;;;13.50;;
44822;SDS011;51097;51.984;5.650;2023-06-19T07:33:23;14.10;;;12.70;;
44822;SDS011;51097;51.984;5.650;2023-06-19T07:35:48;12.40;;;11.18;;
44822;SDS011;51097;51.984;5.650;2023-06-19T07:38:14;15.07;;;13.15;;
44822;SDS011;51097;51.984;5.650;2023-06-19T07:40:39;14.43;;;12.93;;
44822;SDS011;51097;51.984;5.650;2023-06-19T07:43:05;15.02;;;13.73;;
44822;SDS011;51097;51.984;5.650;2023-06-19T07:45:30;15.25;;;13.55;;
44822;SDS011;51097;51.984;5.650;2023-06-19T07:47:56;15.48;;;13.90;;
44822;SDS011;51097;51.984;5.650;2023-06-19T07:50:22;16.50;;;14.75;;
44822;SDS011;51097;51.984;5.650;2023-06-19T07:52:48;15.25;;;13.82;;
44822;SDS011;51097;51.984;5.650;2023-06-19T07:55:13;15.05;;;13.50;;
44822;SDS011;51097;51.984;5.650;2023-06-19T07:57:39;16.10;;;13.80;;
44822;SDS011;51097;51.984;5.650;2023-06-19T08:00:05;15.70;;;14.13;;
44822;SDS011;51097;51.984;5.650;2023-06-19T08:02:36;16.30;;;14.63;;
44822;SDS011;51097;51.984;5.650;2023-06-19T08:05:02;16.05;;;14.48;;
44822;SDS011;51097;51.984;5.650;2023-06-19T08:07:28;16.95;;;15.35;;
44822;SDS011;51097;51.984;5.650;2023-06-19T08:09:53;15.20;;;13.60;;
44822;SDS011;51097;51.984;5.650;2023-06-19T08:12:19;15.07;;;13.43;;
44822;SDS011;51097;51.984;5.650;2023-06-19T08:14:44;17.02;;;14.40;;
44822;SDS011;51097;51.984;5.650;2023-06-19T08:17:10;14.68;;;13.07;;
44822;SDS011;51097;51.984;5.650;2023-06-19T08:19:36;14.30;;;12.95;;
44822;SDS011;51097;51.984;5.650;2023-06-19T08:22:04;15.70;;;14.20;;
44822;SDS011;51097;51.984;5.650;2023-06-19T08:24:30;15.98;;;14.38;;
44822;SDS011;51097;51.984;5.650;2023-06-19T08:26:55;17.13;;;14.73;;
44822;SDS011;51097;51.984;5.650;2023-06-19T08:29:21;19.33;;;17.50;;
44822;SDS011;51097;51.984;5.650;2023-06-19T08:31:47;17.67;;;15.88;;
44822;SDS011;51097;51.984;5.650;2023-06-19T08:34:13;20.70;;;18.48;;
44822;SDS011;51097;51.984;5.650;2023-06-19T08:36:38;20.98;;;18.45;;
44822;SDS011;51097;51.984;5.650;2023-06-19T08:39:04;21.23;;;18.92;;
44822;SDS011;51097;51.984;5.650;2023-06-19T08:41:30;20.05;;;18.20;;
44822;SDS011;51097;51.984;5.650;2023-06-19T08:43:55;20.83;;;18.15;;
44822;SDS011;51097;51.984;5.650;2023-06-19T08:46:21;22.83;;;19.40;;
44822;SDS011;51097;51.984;5.650;2023-06-19T08:48:47;23.42;;;21.02;;
44822;SDS011;51097;51.984;5.650;2023-06-19T08:51:12;20.67;;;18.52;;
44822;SDS011;51097;51.984;5.650;2023-06-19T08:53:48;19.50;;;17.50;;
44822;SDS011;51097;51.984;5.650;2023-06-19T08:56:17;20.40;;;18.20;;
44822;SDS011;51097;51.984;5.650;2023-06-19T08:58:43;21.17;;;17.88;;
44822;SDS011;51097;51.984;5.650;2023-06-19T09:01:08;17.90;;;16.20;;
44822;SDS011;51097;51.984;5.650;2023-06-19T09:03:34;18.88;;;16.30;;
44822;SDS011;51097;51.984;5.650;2023-06-19T09:06:03;19.00;;;17.10;;
44822;SDS011;51097;51.984;5.650;2023-06-19T09:08:31;19.40;;;17.42;;
44822;SDS011;51097;51.984;5.650;2023-06-19T09:11:03;18.75;;;16.95;;
44822;SDS011;51097;51.984;5.650;2023-06-19T09:13:29;18.20;;;16.45;;
44822;SDS011;51097;51.984;5.650;2023-06-19T09:16:00;16.08;;;14.40;;
44822;SDS011;51097;51.984;5.650;2023-06-19T09:18:31;19.05;;;17.25;;
44822;SDS011;51097;51.984;5.650;2023-06-19T09:21:06;16.43;;;14.70;;
44822;SDS011;51097;51.984;5.650;2023-06-19T09:23:39;18.17;;;16.25;;
44822;SDS011;51097;51.984;5.650;2023-06-19T09:26:05;19.98;;;18.05;;
44822;SDS011;51097;51.984;5.650;2023-06-19T09:28:30;19.75;;;17.50;;
44822;SDS011;51097;51.984;5.650;2023-06-19T09:31:00;20.48;;;18.25;;
44822;SDS011;51097;51.984;5.650;2023-06-19T09:33:27;22.20;;;19.58;;
44822;SDS011;51097;51.984;5.650;2023-06-19T09:35:55;20.20;;;18.02;;
44822;SDS011;51097;51.984;5.650;2023-06-19T09:38:23;19.52;;;17.65;;
44822;SDS011;51097;51.984;5.650;2023-06-19T09:40:51;20.25;;;18.15;;
44822;SDS011;51097;51.984;5.650;2023-06-19T09:43:50;16.20;;;14.50;;
44822;SDS011;51097;51.984;5.650;2023-06-19T09:46:10;19.52;;;17.63;;
44822;SDS011;51097;51.984;5.650;2023-06-19T09:48:39;18.88;;;17.02;;
44822;SDS011;51097;51.984;5.650;2023-06-19T09:53:49;18.52;;;15.63;;
44822;SDS011;51097;51.984;5.650;2023-06-19T09:56:16;18.55;;;16.65;;
44822;SDS011;51097;51.984;5.650;2023-06-19T09:58:46;18.63;;;16.92;;
44822;SDS011;51097;51.984;5.650;2023-06-19T10:01:14;18.08;;;16.38;;
44822;SDS011;51097;51.984;5.650;2023-06-19T10:03:43;17.58;;;15.77;;
44822;SDS011;51097;51.984;5.650;2023-06-19T10:06:12;17.58;;;14.65;;
44822;SDS011;51097;51.984;5.650;2023-06-19T10:08:40;25.60;;;16.80;;
44822;SDS011;51097;51.984;5.650;2023-06-19T10:11:07;19.58;;;17.88;;
44822;SDS011;51097;51.984;5.650;2023-06-19T10:13:37;18.48;;;16.77;;
44822;SDS011;51097;51.984;5.650;2023-06-19T10:16:04;21.00;;;18.88;;
44822;SDS011;51097;51.984;5.650;2023-06-19T10:18:31;21.23;;;19.00;;
44822;SDS011;51097;51.984;5.650;2023-06-19T10:20:58;19.92;;;18.08;;
44822;SDS011;51097;51.984;5.650;2023-06-19T10:23:24;20.17;;;17.90;;
44822;SDS011;51097;51.984;5.650;2023-06-19T10:28:22;20.35;;;18.45;;
44822;SDS011;51097;51.984;5.650;2023-06-19T10:30:56;20.13;;;18.13;;
44822;SDS011;51097;51.984;5.650;2023-06-19T10:33:30;20.48;;;18.40;;
44822;SDS011;51097;51.984;5.650;2023-06-19T10:36:12;21.20;;;19.30;;
44822;SDS011;51097;51.984;5.650;2023-06-19T10:38:47;21.75;;;19.52;;
44822;SDS011;51097;51.984;5.650;2023-06-19T10:41:15;22.55;;;20.38;;
44822;SDS011;51097;51.984;5.650;2023-06-19T10:44:00;17.42;;;15.80;;
44822;SDS011;51097;51.984;5.650;2023-06-19T10:46:31;17.08;;;14.82;;
44822;SDS011;51097;51.984;5.650;2023-06-19T10:49:00;20.25;;;18.33;;
44822;SDS011;51097;51.984;5.650;2023-06-19T10:51:29;20.40;;;17.88;;
44822;SDS011;51097;51.984;5.650;2023-06-19T10:53:55;19.50;;;17.52;;
44822;SDS011;51097;51.984;5.650;2023-06-19T10:56:22;20.25;;;18.45;;
44822;SDS011;51097;51.984;5.650;2023-06-19T10:58:48;20.00;;;17.73;;
44822;SDS011;51097;51.984;5.650;2023-06-19T11:01:38;20.10;;;18.00;;
44822;SDS011;51097;51.984;5.650;2023-06-19T11:04:06;18.65;;;16.88;;
44822;SDS011;51097;51.984;5.650;2023-06-19T11:06:33;18.67;;;16.58;;
44822;SDS011;51097;51.984;5.650;2023-06-19T11:08:59;18.17;;;16.42;;
44822;SDS011;51097;51.984;5.650;2023-06-19T11:11:35;18.83;;;16.88;;
44822;SDS011;51097;51.984;5.650;2023-06-19T11:14:01;17.00;;;15.40;;
44822;SDS011;51097;51.984;5.650;2023-06-19T11:16:27;19.05;;;17.17;;
44822;SDS011;51097;51.984;5.650;2023-06-19T11:18:59;20.23;;;18.17;;
44822;SDS011;51097;51.984;5.650;2023-06-19T11:21:32;19.98;;;17.85;;
44822;SDS011;51097;51.984;5.650;2023-06-19T11:24:01;18.83;;;16.92;;
44822;SDS011;51097;51.984;5.650;2023-06-19T11:26:27;18.35;;;16.40;;
44822;SDS011;51097;51.984;5.650;2023-06-19T11:28:53;19.45;;;17.30;;
44822;SDS011;51097;51.984;5.650;2023-06-19T11:31:24;19.38;;;17.45;;
44822;SDS011;51097;51.984;5.650;2023-06-19T11:33:58;18.90;;;16.95;;
44822;SDS011;51097;51.984;5.650;2023-06-19T11:36:26;17.85;;;16.10;;
44822;SDS011;51097;51.984;5.650;2023-06-19T11:38:52;17.02;;;13.45;;
44822;SDS011;51097;51.984;5.650;2023-06-19T11:41:25;15.63;;;13.00;;
44822;SDS011;51097;51.984;5.650;2023-06-19T11:43:57;16.00;;;14.30;;
44822;SDS011;51097;51.984;5.650;2023-06-19T11:46:32;16.83;;;13.18;;
44822;SDS011;51097;51.984;5.650;2023-06-19T11:49:17;14.20;;;12.88;;
44822;SDS011;51097;51.984;5.650;2023-06-19T11:51:43;15.25;;;13.73;;
44822;SDS011;51097;51.984;5.650;2023-06-19T11:54:10;16.67;;;14.98;;
44822;SDS011;51097;51.984;5.650;2023-06-19T11:56:37;15.45;;;13.30;;
44822;SDS011;51097;51.984;5.650;2023-06-19T11:59:04;15.70;;;14.20;;
44822;SDS011;51097;51.984;5.650;2023-06-19T12:01:33;15.02;;;13.52;;
44822;SDS011;51097;51.984;5.650;2023-06-19T12:04:00;13.88;;;12.60;;
44822;SDS011;51097;51.984;5.650;2023-06-19T12:06:26;15.98;;;13.65;;
44822;SDS011;51097;51.984;5.650;2023-06-19T12:08:52;14.77;;;13.30;;
44822;SDS011;51097;51.984;5.650;2023-06-19T12:11:18;14.27;;;12.82;;
44822;SDS011;51097;51.984;5.650;2023-06-19T12:13:44;15.52;;;14.02;;
44822;SDS011;51097;51.984;5.650;2023-06-19T12:16:10;14.30;;;12.82;;
44822;SDS011;51097;51.984;5.650;2023-06-19T12:18:36;19.17;;;17.27;;
44822;SDS011;51097;51.984;5.650;2023-06-19T12:21:02;12.68;;;11.43;;
44822;SDS011;51097;51.984;5.650;2023-06-19T12:23:28;14.23;;;12.82;;
44822;SDS011;51097;51.984;5.650;2023-06-19T12:25:53;15.50;;;13.18;;
44822;SDS011;51097;51.984;5.650;2023-06-19T12:28:19;14.13;;;12.68;;
44822;SDS011;51097;51.984;5.650;2023-06-19T12:30:46;13.07;;;11.77;;
44822;SDS011;51097;51.984;5.650;2023-06-19T12:33:13;12.35;;;11.13;;
44822;SDS011;51097;51.984;5.650;2023-06-19T12:35:39;12.80;;;11.50;;
44822;SDS011;51097;51.984;5.650;2023-06-19T12:38:06;15.73;;;14.23;;
44822;SDS011;51097;51.984;5.650;2023-06-19T12:40:32;14.18;;;12.88;;
44822;SDS011;51097;51.984;5.650;2023-06-19T12:42:58;15.43;;;13.88;;
44822;SDS011;51097;51.984;5.650;2023-06-19T12:45:23;14.18;;;12.75;;
44822;SDS011;51097;51.984;5.650;2023-06-19T12:47:49;12.00;;;10.90;;
44822;SDS011;51097;51.984;5.650;2023-06-19T12:50:14;14.20;;;10.57;;
44822;SDS011;51097;51.984;5.650;2023-06-19T12:52:40;12.60;;;11.40;;
44822;SDS011;51097;51.984;5.650;2023-06-19T12:55:06;12.43;;;11.18;;
44822;SDS011;51097;51.984;5.650;2023-06-19T12:57:32;9.07;;;8.05;;
44822;SDS011;51097;51.984;5.650;2023-06-19T12:59:57;9.93;;;8.52;;
44822;SDS011;51097;51.984;5.650;2023-06-19T13:02:23;9.63;;;8.70;;
44822;SDS011;51097;51.984;5.650;2023-06-19T13:04:48;10.10;;;9.00;;
44822;SDS011;51097;51.984;5.650;2023-06-19T13:07:14;10.65;;;9.65;;
44822;SDS011;51097;51.984;5.650;2023-06-19T13:09:40;12.25;;;11.05;;
44822;SDS011;51097;51.984;5.650;2023-06-19T13:12:06;13.02;;;10.15;;
44822;SDS011;51097;51.984;5.650;2023-06-19T13:14:32;7.90;;;7.10;;
44822;SDS011;51097;51.984;5.650;2023-06-19T13:16:57;10.38;;;9.18;;
44822;SDS011;51097;51.984;5.650;2023-06-19T13:19:23;8.98;;;8.18;;
44822;SDS011;51097;51.984;5.650;2023-06-19T13:21:49;11.20;;;10.07;;
44822;SDS011;51097;51.984;5.650;2023-06-19T13:24:16;10.93;;;8.15;;
44822;SDS011;51097;51.984;5.650;2023-06-19T13:26:42;10.48;;;9.32;;
44822;SDS011;51097;51.984;5.650;2023-06-19T13:29:09;10.60;;;9.45;;
44822;SDS011;51097;51.984;5.650;2023-06-19T13:31:36;10.43;;;9.02;;
44822;SDS011;51097;51.984;5.650;2023-06-19T13:34:02;11.68;;;10.48;;
44822;SDS011;51097;51.984;5.650;2023-06-19T13:36:28;11.95;;;10.77;;
44822;SDS011;51097;51.984;5.650;2023-06-19T13:38:54;10.57;;;9.55;;
44822;SDS011;51097;51.984;5.650;2023-06-19T13:41:19;10.38;;;9.48;;
44822;SDS011;51097;51.984;5.650;2023-06-19T13:43:45;11.63;;;10.35;;
44822;SDS011;51097;51.984;5.650;2023-06-19T13:46:11;11.90;;;10.75;;
44822;SDS011;51097;51.984;5.650;2023-06-19T13:48:36;12.85;;;11.73;;
44822;SDS011;51097;51.984;5.650;2023-06-19T13:51:02;12.20;;;10.95;;
44822;SDS011;51097;51.984;5.650;2023-06-19T13:53:28;12.15;;;11.07;;
44822;SDS011;51097;51.984;5.650;2023-06-19T13:55:55;12.20;;;11.00;;
44822;SDS011;51097;51.984;5.650;2023-06-19T13:58:21;10.88;;;9.77;;
44822;SDS011;51097;51.984;5.650;2023-06-19T14:00:46;11.43;;;10.43;;
44822;SDS011;51097;51.984;5.650;2023-06-19T14:03:13;11.80;;;10.60;;
44822;SDS011;51097;51.984;5.650;2023-06-19T14:05:39;12.60;;;10.65;;
44822;SDS011;51097;51.984;5.650;2023-06-19T14:08:05;12.25;;;10.45;;
44822;SDS011;51097;51.984;5.650;2023-06-19T14:10:30;11.93;;;10.70;;
44822;SDS011;51097;51.984;5.650;2023-06-19T14:12:56;11.65;;;10.10;;
44822;SDS011;51097;51.984;5.650;2023-06-19T14:15:21;10.85;;;8.90;;
44822;SDS011;51097;51.984;5.650;2023-06-19T14:17:47;11.70;;;10.57;;
44822;SDS011;51097;51.984;5.650;2023-06-19T14:20:13;11.18;;;10.02;;
44822;SDS011;51097;51.984;5.650;2023-06-19T14:22:39;8.85;;;7.95;;
44822;SDS011;51097;51.984;5.650;2023-06-19T14:25:04;10.02;;;9.13;;
44822;SDS011;51097;51.984;5.650;2023-06-19T14:27:30;10.82;;;9.82;;
44822;SDS011;51097;51.984;5.650;2023-06-19T14:29:56;9.48;;;8.57;;
44822;SDS011;51097;51.984;5.650;2023-06-19T14:32:22;10.45;;;9.35;;
44822;SDS011;51097;51.984;5.650;2023-06-19T14:34:51;10.65;;;9.65;;
44822;SDS011;51097;51.984;5.650;2023-06-19T14:37:17;11.35;;;10.27;;
44822;SDS011;51097;51.984;5.650;2023-06-19T14:39:43;10.35;;;9.27;;
44822;SDS011;51097;51.984;5.650;2023-06-19T14:42:08;11.32;;;9.88;;
44822;SDS011;51097;51.984;5.650;2023-06-19T14:44:35;11.52;;;10.48;;